Time;durP1;ratioP1;P1;durP2;ratioP2;P2;SDS_P1;SDS_P2;PMS_P1;PMS_P2;Temp;Humidity;BMP_temperature;BMP_pressure;BME280_temperature;BME280_humidity;BME280_pressure;Samples;Min_cycle;Max_cycle;Signal;HPM_P1;HPM_P2
2021/01/05 00:05:57;;;;;;;35.30;19.50;;;;;;;1.79;90.02;99338.41;493988;1141;65135;-64
2021/01/05 00:16:01;;;;;;;34.83;20.80;;;;;;;1.76;90.06;99345.41;494183;1141;65108;-64
2021/01/05 00:26:05;;;;;;;39.53;19.80;;;;;;;1.73;89.96;99342.94;493760;1141;65261;-64
2021/01/05 00:36:09;;;;;;;27.95;15.95;;;;;;;1.61;89.82;99334.66;493532;1141;65482;-65
2021/01/05 00:46:13;;;;;;;30.17;16.23;;;;;;;1.58;89.98;99339.08;493531;1141;65213;-64
2021/01/05 00:56:17;;;;;;;31.40;19.17;;;;;;;1.56;90.26;99313.27;493958;1141;65134;-65
2021/01/05 01:06:22;;;;;;;26.90;14.53;;;;;;;1.54;90.44;99302.95;493667;1141;65147;-63
2021/01/05 01:16:26;;;;;;;30.63;16.53;;;;;;;1.51;90.48;99303.05;493980;1141;65439;-66
2021/01/05 01:26:30;;;;;;;30.63;15.17;;;;;;;1.54;90.57;99291.73;493738;1141;65181;-65
2021/01/05 01:36:34;;;;;;;27.53;15.63;;;;;;;1.58;90.56;99288.18;494046;1141;65426;-64
2021/01/05 01:46:38;;;;;;;33.63;16.97;;;;;;;1.59;90.63;99282.10;493962;1141;65137;-63
2021/01/05 02:05:18;;;;;;;32.87;17.10;;;;;;;1.62;90.25;99245.77;491995;1146;65555;-64
2021/01/05 02:15:34;;;;;;;30.02;18.52;;;;;;;1.60;91.15;99239.80;490877;1147;65104;-63
2021/01/05 02:25:52;;;;;;;26.00;14.85;;;;;;;1.60;90.71;99233.75;490856;1147;65200;-64
2021/01/05 02:36:25;;;;;;;23.83;15.30;;;;;;;1.56;90.66;99227.86;491279;1147;65130;-63
2021/01/05 02:46:54;;;;;;;24.93;14.63;;;;;;;1.53;91.21;99226.21;490876;1147;65195;-64
2021/01/05 02:57:16;;;;;;;24.57;15.07;;;;;;;1.57;91.22;99221.78;491430;1148;65141;-63
2021/01/05 03:07:25;;;;;;;24.50;15.37;;;;;;;1.56;90.97;99201.98;491900;1147;65127;-64
2021/01/05 03:17:33;;;;;;;21.95;14.70;;;;;;;1.53;91.11;99186.53;491683;1148;65204;-64
2021/01/05 03:27:40;;;;;;;24.40;13.75;;;;;;;1.52;90.84;99190.88;493301;1146;65203;-64
2021/01/05 03:37:44;;;;;;;20.00;13.80;;;;;;;1.57;90.97;99193.32;493452;1146;65754;-62
2021/01/05 03:47:48;;;;;;;19.77;13.37;;;;;;;1.54;91.40;99168.38;493214;1146;65138;-66
2021/01/05 03:57:52;;;;;;;20.83;14.13;;;;;;;1.49;91.62;99151.31;493448;1147;65123;-63
2021/01/05 04:07:56;;;;;;;21.25;14.50;;;;;;;1.48;91.31;99149.63;492348;1147;65114;-64
2021/01/05 04:18:01;;;;;;;23.07;13.07;;;;;;;1.46;91.56;99147.08;492962;1147;65329;-63
2021/01/05 04:28:05;;;;;;;17.40;12.77;;;;;;;1.44;91.50;99146.30;492635;1147;65140;-64
2021/01/05 04:38:09;;;;;;;17.03;12.37;;;;;;;1.43;91.25;99139.44;493283;1147;65577;-63
2021/01/05 04:48:24;;;;;;;19.07;12.13;;;;;;;1.42;91.98;99137.74;492514;1147;65140;-63
2021/01/05 04:58:34;;;;;;;23.63;15.13;;;;;;;1.40;92.28;99126.61;492877;1147;65114;-64
2021/01/05 05:08:57;;;;;;;22.30;13.63;;;;;;;1.38;92.05;99112.85;492455;1146;65316;-65
2021/01/05 05:19:14;;;;;;;23.87;14.73;;;;;;;1.37;92.03;99116.34;493580;1147;65133;-65
2021/01/05 05:29:37;;;;;;;19.65;11.45;;;;;;;1.34;91.96;99104.38;492816;1146;66296;-64
2021/01/05 05:40:02;;;;;;;18.20;12.23;;;;;;;1.36;92.04;99099.13;492674;1147;65108;-64
2021/01/05 05:50:14;;;;;;;13.50;9.73;;;;;;;1.40;92.20;99086.04;492823;1147;65187;-65
2021/01/05 06:00:27;;;;;;;14.17;10.83;;;;;;;1.47;91.78;99091.84;492662;1147;65600;-63
2021/01/05 06:10:31;;;;;;;10.90;7.20;;;;;;;1.56;92.33;99082.94;492431;1147;65194;-65
2021/01/05 06:20:36;;;;;;;13.13;7.93;;;;;;;1.60;91.92;99066.39;492474;1147;65158;-64
2021/01/05 06:30:40;;;;;;;9.27;6.73;;;;;;;1.65;91.60;99068.82;492831;1147;65149;-65
2021/01/05 06:40:44;;;;;;;7.83;5.70;;;;;;;1.68;91.51;99053.17;493362;1147;65119;-64
2021/01/05 06:50:48;;;;;;;6.03;4.20;;;;;;;1.71;91.30;99047.87;493049;1147;65165;-64
2021/01/05 07:00:52;;;;;;;5.43;4.43;;;;;;;1.72;91.19;99053.91;492943;1146;65133;-65
2021/01/05 07:10:56;;;;;;;4.25;3.45;;;;;;;1.72;90.83;99043.56;492385;1147;65150;-64
2021/01/05 07:21:00;;;;;;;3.53;3.00;;;;;;;1.70;90.64;99048.78;492875;1147;65172;-63
2021/01/05 07:31:04;;;;;;;3.40;3.10;;;;;;;1.70;91.12;99029.83;493272;1146;65342;-65
2021/01/05 07:41:09;;;;;;;5.00;2.67;;;;;;;1.62;90.47;99022.35;493351;1146;65133;-65
2021/01/05 07:51:12;;;;;;;3.33;2.43;;;;;;;1.60;90.70;99013.77;493566;1146;65207;-65
2021/01/05 08:01:17;;;;;;;3.73;3.23;;;;;;;1.58;90.49;99010.41;493032;1146;65204;-62
2021/01/05 08:11:28;;;;;;;5.20;2.93;;;;;;;1.49;90.64;98994.30;493045;1146;65609;-64
2021/01/05 08:21:32;;;;;;;5.13;2.67;;;;;;;1.46;90.45;98988.42;492762;1147;65220;-63
2021/01/05 08:31:39;;;;;;;4.33;3.17;;;;;;;1.42;90.33;98987.68;493428;1147;65564;-66
2021/01/05 08:41:44;;;;;;;4.85;3.05;;;;;;;1.37;90.15;98977.50;493693;1146;65528;-66
2021/01/05 08:51:48;;;;;;;3.60;2.87;;;;;;;1.33;90.42;98969.90;493230;1147;65770;-65
2021/01/05 09:01:53;;;;;;;4.07;3.23;;;;;;;1.32;90.13;98961.28;493474;1147;66337;-61
2021/01/05 09:11:59;;;;;;;3.30;2.87;;;;;;;1.34;90.47;98959.51;484165;1146;10001849;-64
2021/01/05 09:22:03;;;;;;;4.63;2.73;;;;;;;1.20;90.20;98941.03;492749;1146;65179;-65
2021/01/05 09:32:07;;;;;;;4.30;3.45;;;;;;;1.19;90.34;98929.86;491830;1146;65181;-67
2021/01/05 09:42:11;;;;;;;3.97;3.13;;;;;;;1.24;90.17;98930.52;493237;1146;65127;-64
2021/01/05 09:52:15;;;;;;;4.20;3.53;;;;;;;1.22;89.99;98923.74;492372;1147;65134;-65
2021/01/05 10:02:19;;;;;;;4.20;3.33;;;;;;;1.19;89.47;98896.23;492541;1146;65207;-68
2021/01/05 10:12:23;;;;;;;3.70;2.93;;;;;;;1.14;89.94;98887.79;491847;1146;65343;-65
2021/01/05 10:22:27;;;;;;;7.60;5.33;;;;;;;1.15;90.03;98857.61;492220;1146;65163;-60
2021/01/05 10:32:31;;;;;;;5.67;4.33;;;;;;;1.15;89.48;98857.61;492038;1147;65527;-64
2021/01/05 10:42:39;;;;;;;4.65;3.40;;;;;;;1.14;89.40;98840.41;492951;1146;65188;-61
2021/01/05 10:52:44;;;;;;;3.75;3.30;;;;;;;1.12;89.21;98832.70;492984;1146;65468;-61
2021/01/05 11:02:48;;;;;;;4.20;2.67;;;;;;;1.12;89.65;98817.19;491993;1146;65137;-63
2021/01/05 11:12:55;;;;;;;3.35;3.00;;;;;;;1.05;88.80;98803.65;493158;1145;65184;-65
2021/01/05 11:22:59;;;;;;;4.87;4.37;;;;;;;1.06;89.26;98794.16;491760;1145;65127;-63
2021/01/05 11:33:03;;;;;;;4.27;3.53;;;;;;;1.15;88.75;98785.20;492038;1146;65328;-63
2021/01/05 11:43:07;;;;;;;6.57;4.50;;;;;;;1.19;89.50;98784.17;493030;1146;65533;-63
2021/01/05 11:53:11;;;;;;;5.73;3.63;;;;;;;1.15;88.83;98767.11;492316;1146;65111;-63
2021/01/05 12:03:15;;;;;;;3.32;2.80;;;;;;;1.10;89.57;98757.80;484386;1146;10001864;-64
2021/01/05 12:13:19;;;;;;;3.50;3.15;;;;;;;1.16;88.77;98754.12;491919;1145;65239;-66
2021/01/05 12:23:23;;;;;;;4.45;4.00;;;;;;;1.16;88.95;98736.03;492808;1145;65275;-66
2021/01/05 12:33:27;;;;;;;5.93;4.93;;;;;;;1.20;89.38;98739.31;492837;1146;66312;-63
2021/01/05 12:43:31;;;;;;;5.85;3.70;;;;;;;1.22;88.57;98738.36;492612;1145;65831;-61
2021/01/05 12:53:35;;;;;;;4.40;3.53;;;;;;;1.10;88.51;98746.59;492507;1146;65490;-62
2021/01/05 13:03:38;;;;;;;5.00;4.23;;;;;;;1.07;89.13;98741.55;493379;1146;65134;-63
2021/01/05 13:13:42;;;;;;;4.87;4.23;;;;;;;1.09;89.04;98730.22;492655;1146;65228;-64
2021/01/05 13:23:47;;;;;;;5.13;4.20;;;;;;;1.08;88.79;98738.06;493202;1146;65112;-63
2021/01/05 13:33:51;;;;;;;4.77;3.80;;;;;;;1.07;88.86;98739.79;492647;1146;65124;-63
2021/01/05 13:44:15;;;;;;;7.20;4.25;;;;;;;1.06;89.04;98727.77;492541;1146;65146;-64
2021/01/05 13:54:22;;;;;;;5.77;4.40;;;;;;;0.97;88.39;98728.97;492341;1146;65498;-61
2021/01/05 14:04:26;;;;;;;6.08;5.00;;;;;;;0.92;88.88;98730.05;492057;1146;65550;-64
2021/01/05 14:14:31;;;;;;;5.00;4.17;;;;;;;0.84;88.29;98726.00;492777;1146;65111;-63
2021/01/05 14:24:35;;;;;;;7.50;4.25;;;;;;;0.79;88.75;98730.52;483548;1146;10001382;-63
2021/01/05 14:34:39;;;;;;;4.60;3.63;;;;;;;0.64;88.99;98731.93;492056;1146;65150;-64
2021/01/05 14:44:45;;;;;;;6.85;4.85;;;;;;;0.54;88.46;98728.85;492695;1146;65233;-61
2021/01/05 14:54:49;;;;;;;7.35;6.65;;;;;;;0.53;89.03;98739.23;492947;1146;65473;-63
2021/01/05 15:04:54;;;;;;;7.75;6.95;;;;;;;0.59;88.62;98740.75;492579;1146;65184;-66
2021/01/05 15:14:58;;;;;;;8.63;6.73;;;;;;;0.60;88.91;98732.09;492387;1145;65132;-64
2021/01/05 15:25:02;;;;;;;13.57;9.93;;;;;;;0.63;89.11;98740.58;493011;1146;65272;-61
2021/01/05 15:35:07;;;;;;;20.95;13.90;;;;;;;0.58;88.78;98724.42;492346;1146;65210;-61
2021/01/05 15:45:13;;;;;;;14.57;9.20;;;;;;;0.59;89.30;98718.35;492612;1147;65172;-64
2021/01/05 15:55:17;;;;;;;13.43;8.70;;;;;;;0.60;89.20;98711.42;493004;1146;65545;-64
2021/01/05 16:05:21;;;;;;;16.33;10.80;;;;;;;0.62;89.13;98710.48;492772;1146;65133;-64
2021/01/05 16:15:26;;;;;;;21.87;15.30;;;;;;;0.59;89.60;98700.27;492523;1147;65524;-64
2021/01/05 16:25:30;;;;;;;20.03;13.70;;;;;;;0.64;89.71;98707.84;492740;1145;65347;-63
2021/01/05 16:35:37;;;;;;;20.20;12.58;;;;;;;0.69;89.42;98704.19;492437;1146;65143;-65
2021/01/05 16:45:41;;;;;;;19.30;12.80;;;;;;;0.74;89.46;98706.58;492170;1146;65571;-63
2021/01/05 16:55:46;;;;;;;18.80;12.67;;;;;;;0.82;90.03;98701.96;492347;1147;65148;-62
2021/01/05 17:05:52;;;;;;;15.43;13.00;;;;;;;0.92;89.55;98705.02;493341;1145;65607;-64
2021/01/05 17:15:55;;;;;;;13.30;9.43;;;;;;;1.01;89.75;98716.77;492775;1147;65102;-65
2021/01/05 17:25:59;;;;;;;12.33;10.23;;;;;;;1.02;89.72;98708.11;492808;1146;65215;-65
2021/01/05 17:36:05;;;;;;;11.77;9.73;;;;;;;1.04;89.14;98706.30;492354;1146;65185;-66
2021/01/05 17:46:09;;;;;;;10.00;8.00;;;;;;;1.08;89.25;98707.86;492470;1146;65108;-64
2021/01/05 17:56:13;;;;;;;20.30;14.70;;;;;;;1.11;89.41;98720.69;493195;1146;65217;-67
2021/01/05 18:06:17;;;;;;;22.37;16.87;;;;;;;1.06;89.59;98716.60;493018;1146;65124;-64
2021/01/05 18:16:23;;;;;;;12.23;9.87;;;;;;;1.03;89.21;98722.72;493003;1147;65117;-64
2021/01/05 18:26:32;;;;;;;13.93;9.30;;;;;;;0.92;88.92;98725.70;492681;1147;65497;-63
2021/01/05 18:36:38;;;;;;;15.97;12.00;;;;;;;0.95;89.69;98722.17;492715;1146;65130;-64
2021/01/05 18:46:44;;;;;;;15.80;11.23;;;;;;;0.91;89.43;98723.20;492694;1147;65562;-62
2021/01/05 18:56:49;;;;;;;25.90;17.13;;;;;;;0.99;89.31;98736.68;492581;1146;65127;-63
2021/01/05 19:06:57;;;;;;;19.17;13.70;;;;;;;1.03;89.71;98739.97;492969;1146;65198;-62
2021/01/05 19:17:01;;;;;;;21.03;13.67;;;;;;;1.01;89.57;98762.45;492643;1146;65545;-64
2021/01/05 19:27:06;;;;;;;17.33;12.23;;;;;;;0.98;89.15;98768.58;492622;1146;66058;-69
2021/01/05 19:37:13;;;;;;;16.47;11.27;;;;;;;0.92;89.29;98773.99;492912;1145;65211;-63
2021/01/05 19:47:17;;;;;;;15.47;11.83;;;;;;;0.97;89.25;98787.58;492897;1146;65580;-66
2021/01/05 19:57:21;;;;;;;15.03;10.83;;;;;;;0.94;89.04;98773.05;493027;1147;65575;-69
2021/01/05 20:07:25;;;;;;;17.35;13.25;;;;;;;1.02;89.38;98783.09;492807;1146;65118;-61
2021/01/05 20:17:29;;;;;;;14.97;10.27;;;;;;;1.13;89.01;98790.42;492988;1146;65359;-66
2021/01/05 20:27:36;;;;;;;10.20;8.33;;;;;;;1.15;88.57;98801.55;492513;1146;65480;-67
2021/01/05 20:37:40;;;;;;;14.35;9.13;;;;;;;1.13;88.21;98794.77;492441;1146;65216;-64
2021/01/05 20:47:46;;;;;;;15.07;9.63;;;;;;;1.06;88.23;98805.34;492981;1145;65162;-65
2021/01/05 20:57:52;;;;;;;13.90;9.35;;;;;;;1.09;88.64;98796.63;493211;1146;65878;-70
2021/01/05 21:07:56;;;;;;;13.60;10.73;;;;;;;1.06;88.67;98801.92;493340;1146;65116;-63
2021/01/05 21:18:13;;;;;;;18.35;11.83;;;;;;;0.87;88.17;98809.52;492769;1146;65328;-63
2021/01/05 21:28:19;;;;;;;14.30;10.05;;;;;;;0.74;88.46;98815.11;493274;1146;65165;-65
2021/01/05 21:38:24;;;;;;;17.40;11.87;;;;;;;0.63;88.43;98819.82;492757;1145;65727;-63
2021/01/05 21:48:29;;;;;;;24.30;12.90;;;;;;;0.55;88.78;98831.29;492845;1145;65544;-63
2021/01/05 21:58:33;;;;;;;22.50;15.03;;;;;;;0.57;88.12;98833.80;493102;1145;65123;-66
2021/01/05 22:08:39;;;;;;;24.97;15.87;;;;;;;0.45;88.29;98845.42;492597;1145;65714;-67
2021/01/05 22:18:43;;;;;;;25.23;15.63;;;;;;;0.30;87.95;98854.53;492668;1144;65136;-66
2021/01/05 22:28:47;;;;;;;20.73;14.40;;;;;;;0.14;89.11;98861.94;491786;1145;66172;-66
2021/01/05 22:38:51;;;;;;;20.13;14.73;;;;;;;0.10;89.31;98865.53;492733;1145;65146;-66
2021/01/05 22:48:55;;;;;;;15.70;9.43;;;;;;;0.02;88.75;98859.77;492357;1144;65138;-64
2021/01/05 22:58:59;;;;;;;16.70;9.57;;;;;;;-0.10;88.53;98850.70;492880;1145;65153;-64
2021/01/05 23:09:07;;;;;;;11.60;8.33;;;;;;;-0.15;88.75;98872.31;493035;1145;65135;-64
2021/01/05 23:19:12;;;;;;;13.93;9.10;;;;;;;-0.18;88.41;98875.00;493038;1145;65204;-67
2021/01/05 23:29:16;;;;;;;13.83;9.93;;;;;;;-0.12;88.96;98878.27;492762;1145;66430;-65
2021/01/05 23:39:23;;;;;;;16.10;9.90;;;;;;;-0.10;89.18;98879.91;492987;1145;65118;-66
2021/01/05 23:49:27;;;;;;;18.40;12.90;;;;;;;-0.05;88.70;98874.61;493035;1147;65154;-66
2021/01/05 23:59:31;;;;;;;14.80;10.20;;;;;;;-0.01;89.22;98869.30;493147;1146;65140;-65
